createdAt,value
2019-04-30T00:02:20.132Z,5.59
2019-04-30T00:04:55.875Z,5.61
2019-04-30T00:07:30.283Z,5.61
2019-04-30T00:10:06.169Z,5.59
2019-04-30T00:12:40.453Z,5.56
2019-04-30T00:15:17.890Z,5.54
2019-04-30T00:17:52.987Z,5.52
2019-04-30T00:20:30.029Z,5.52
2019-04-30T00:23:02.078Z,5.51
2019-04-30T00:25:35.603Z,5.50
2019-04-30T00:28:09.568Z,5.48
2019-04-30T00:30:43.941Z,5.45
2019-04-30T00:33:22.275Z,5.46
2019-04-30T00:35:57.826Z,5.45
2019-04-30T00:38:36.019Z,5.48
2019-04-30T00:41:10.055Z,5.48
2019-04-30T00:43:46.451Z,5.47
2019-04-30T00:46:25.493Z,5.48
2019-04-30T00:48:53.259Z,5.48
2019-04-30T00:51:26.450Z,5.46
2019-04-30T00:54:00.288Z,5.45
2019-04-30T00:56:35.519Z,5.42
2019-04-30T00:59:10.652Z,5.42
2019-04-30T01:01:52.241Z,5.41
2019-04-30T01:04:36.647Z,5.36
2019-04-30T01:07:11.555Z,5.38
2019-04-30T01:09:49.436Z,5.38
2019-04-30T01:12:25.313Z,5.38
2019-04-30T01:14:56.703Z,5.39
2019-04-30T01:17:30.113Z,5.40
2019-04-30T01:20:05.853Z,5.38
2019-04-30T01:22:39.951Z,5.37
2019-04-30T01:25:14.282Z,5.38
2019-04-30T01:27:49.325Z,5.36
2019-04-30T01:30:25.963Z,5.34
2019-04-30T01:33:01.078Z,5.32
2019-04-30T01:35:35.067Z,5.33
2019-04-30T01:38:12.477Z,5.31
2019-04-30T01:40:47.401Z,5.31
2019-04-30T01:43:30.467Z,5.33
2019-04-30T01:45:56.608Z,5.36
2019-04-30T01:48:29.952Z,5.36
2019-04-30T01:51:03.820Z,5.34
2019-04-30T01:53:38.736Z,5.33
2019-04-30T01:56:20.565Z,5.32
2019-04-30T01:59:01.962Z,5.34
2019-04-30T02:01:39.029Z,5.33
2019-04-30T02:04:13.467Z,5.36
2019-04-30T02:06:49.303Z,5.35
2019-04-30T02:09:23.585Z,5.35
2019-04-30T02:11:57.412Z,5.35
2019-04-30T02:14:31.473Z,5.37
2019-04-30T02:17:04.698Z,5.37
2019-04-30T02:19:39.107Z,5.38
2019-04-30T02:22:13.219Z,5.33
2019-04-30T02:24:48.654Z,5.29
2019-04-30T02:27:22.625Z,5.27
2019-04-30T02:29:55.849Z,5.24
2019-04-30T02:32:30.695Z,5.18
2019-04-30T02:35:24.326Z,5.15
2019-04-30T02:38:12.065Z,5.15
2019-04-30T02:40:49.626Z,5.15
2019-04-30T02:43:24.337Z,5.13
2019-04-30T02:46:00.058Z,5.15
2019-04-30T02:48:39.389Z,5.13
2019-04-30T02:51:14.497Z,5.12
2019-04-30T02:53:54.169Z,5.13
2019-04-30T02:56:30.062Z,5.12
2019-04-30T02:59:04.332Z,5.11
2019-04-30T03:01:40.215Z,5.13
2019-04-30T03:04:14.012Z,5.13
2019-04-30T03:06:50.249Z,5.11
2019-04-30T03:09:23.659Z,5.13
2019-04-30T03:12:00.215Z,5.12
2019-04-30T03:14:33.836Z,5.15
2019-04-30T03:17:14.301Z,5.13
2019-04-30T03:19:50.248Z,5.18
2019-04-30T03:22:25.913Z,5.16
2019-04-30T03:24:59.973Z,5.18
2019-04-30T03:27:34.216Z,5.19
2019-04-30T03:30:11.847Z,5.22
2019-04-30T03:32:50.314Z,5.25
2019-04-30T03:35:22.801Z,5.26
2019-04-30T03:37:55.310Z,5.27
2019-04-30T03:40:30.175Z,5.30
2019-04-30T03:43:04.406Z,5.33
2019-04-30T03:45:40.201Z,5.36
2019-04-30T03:48:14.157Z,5.39
2019-04-30T03:50:53.337Z,5.44
2019-04-30T03:53:22.170Z,5.49
2019-04-30T03:55:56.124Z,5.53
2019-04-30T03:58:29.426Z,5.57
2019-04-30T04:01:10.943Z,5.63
2019-04-30T04:04:04.953Z,5.65
2019-04-30T04:06:55.547Z,5.73
2019-04-30T04:09:40.137Z,5.80
2019-04-30T04:12:30.508Z,5.90
2019-04-30T04:15:05.919Z,5.97
2019-04-30T04:17:40.069Z,6.04
2019-04-30T04:20:14.316Z,6.12
2019-04-30T04:22:49.682Z,6.19
2019-04-30T04:25:24.031Z,6.29
2019-04-30T04:28:00.172Z,6.42
2019-04-30T04:30:32.938Z,6.56
2019-04-30T04:33:06.177Z,6.75
2019-04-30T04:35:40.273Z,6.99
2019-04-30T04:38:13.455Z,7.12
2019-04-30T04:40:50.003Z,7.23
2019-04-30T04:43:23.381Z,7.33
2019-04-30T04:45:59.417Z,7.46
2019-04-30T04:48:32.963Z,7.55
2019-04-30T04:51:38.001Z,7.70
2019-04-30T04:54:03.591Z,7.85
2019-04-30T04:56:39.855Z,8.16
2019-04-30T04:59:13.223Z,8.54
2019-04-30T05:01:48.927Z,9.06
2019-04-30T05:04:22.704Z,9.57
2019-04-30T05:06:56.706Z,10.03
2019-04-30T05:09:29.787Z,10.48
2019-04-30T05:12:03.772Z,10.95
2019-04-30T05:14:38.575Z,11.30
2019-04-30T05:17:12.525Z,11.70
2019-04-30T05:19:48.641Z,12.05
2019-04-30T05:22:22.287Z,12.43
2019-04-30T05:24:55.533Z,12.71
2019-04-30T05:27:30.302Z,13.07
2019-04-30T05:30:06.509Z,13.28
2019-04-30T05:32:40.750Z,13.52
2019-04-30T05:35:14.590Z,13.73
2019-04-30T05:37:49.489Z,13.87
2019-04-30T05:40:23.443Z,13.92
2019-04-30T05:42:57.383Z,13.89
2019-04-30T05:45:33.634Z,13.95
2019-04-30T05:48:08.851Z,13.91
2019-04-30T05:50:42.982Z,13.95
2019-04-30T05:53:18.905Z,14.03
2019-04-30T05:55:52.559Z,14.16
2019-04-30T05:58:26.701Z,14.39
2019-04-30T06:01:00.914Z,14.74
2019-04-30T06:03:35.263Z,15.13
2019-04-30T06:06:11.484Z,15.63
2019-04-30T06:08:49.266Z,16.00
2019-04-30T06:11:41.171Z,16.42
2019-04-30T06:14:22.565Z,16.90
2019-04-30T06:17:10.283Z,17.28
2019-04-30T06:19:44.609Z,17.59
2019-04-30T06:22:19.223Z,17.92
2019-04-30T06:24:53.233Z,18.14
2019-04-30T06:27:29.167Z,18.45
2019-04-30T06:30:03.572Z,18.81
2019-04-30T06:32:39.440Z,18.92
2019-04-30T06:35:13.703Z,19.18
2019-04-30T06:37:48.913Z,19.54
2019-04-30T06:40:23.063Z,19.71
2019-04-30T06:43:00.426Z,19.72
2019-04-30T06:45:34.855Z,19.81
2019-04-30T06:48:09.186Z,20.05
2019-04-30T06:50:43.627Z,20.33
2019-04-30T06:53:21.405Z,20.45
2019-04-30T06:55:58.857Z,20.80
2019-04-30T06:58:35.219Z,21.11
2019-04-30T07:01:10.137Z,21.23
2019-04-30T07:03:48.731Z,21.56
2019-04-30T07:06:31.799Z,21.56
2019-04-30T07:09:05.541Z,21.87
2019-04-30T07:11:49.423Z,22.21
2019-04-30T07:14:25.065Z,22.50
2019-04-30T07:17:05.194Z,22.72
2019-04-30T07:19:54.228Z,22.77
2019-04-30T07:22:37.694Z,22.91
2019-04-30T07:25:02.927Z,23.13
2019-04-30T07:27:40.254Z,23.31
2019-04-30T07:30:14.189Z,23.56
2019-04-30T07:32:48.821Z,23.76
2019-04-30T07:35:22.805Z,23.79
2019-04-30T07:38:00.572Z,23.93
2019-04-30T07:40:32.266Z,24.15
2019-04-30T07:43:06.223Z,24.38
2019-04-30T07:45:40.329Z,24.40
2019-04-30T07:48:14.365Z,24.65
2019-04-30T07:50:51.459Z,24.94
2019-04-30T07:53:23.967Z,24.83
2019-04-30T07:55:58.821Z,24.85
2019-04-30T07:58:32.939Z,25.21
2019-04-30T08:01:10.019Z,25.47
2019-04-30T08:03:50.645Z,25.25
2019-04-30T08:06:24.924Z,25.31
2019-04-30T08:09:00.820Z,25.27
2019-04-30T08:11:39.677Z,25.44
2019-04-30T08:14:10.631Z,25.46
2019-04-30T08:16:44.492Z,25.88
2019-04-30T08:19:19.135Z,26.13
2019-04-30T08:21:53.043Z,26.59
2019-04-30T08:24:26.879Z,27.06
2019-04-30T08:27:01.267Z,27.21
2019-04-30T08:29:35.655Z,27.15
2019-04-30T08:32:09.657Z,26.34
2019-04-30T08:34:43.713Z,26.13
2019-04-30T08:37:20.162Z,26.57
2019-04-30T08:39:53.298Z,27.15
2019-04-30T08:42:31.790Z,27.56
2019-04-30T08:45:02.647Z,27.74
2019-04-30T08:47:36.517Z,27.72
2019-04-30T08:50:11.261Z,28.27
2019-04-30T08:52:45.471Z,28.16
2019-04-30T08:55:22.345Z,28.23
2019-04-30T08:58:08.942Z,28.42
2019-04-30T09:00:30.911Z,28.16
2019-04-30T09:03:04.847Z,28.13
2019-04-30T09:05:40.319Z,28.64
2019-04-30T09:08:15.924Z,29.38
2019-04-30T09:10:49.907Z,29.93
2019-04-30T09:13:23.988Z,30.46
2019-04-30T09:15:59.324Z,30.56
2019-04-30T09:18:33.473Z,30.44
2019-04-30T09:21:08.976Z,30.15
2019-04-30T09:23:49.707Z,30.28
2019-04-30T09:26:18.821Z,30.24
2019-04-30T09:28:52.814Z,30.79
2019-04-30T09:31:26.851Z,31.28
2019-04-30T09:34:01.178Z,30.88
2019-04-30T09:36:35.221Z,31.41
2019-04-30T09:39:09.362Z,31.19
2019-04-30T09:41:43.207Z,30.98
2019-04-30T09:44:17.063Z,30.48
2019-04-30T09:46:51.149Z,29.52
2019-04-30T09:49:25.012Z,29.01
2019-04-30T09:51:59.546Z,29.58
2019-04-30T09:54:33.775Z,29.90
2019-04-30T09:57:08.766Z,30.05
2019-04-30T09:59:43.508Z,29.71
2019-04-30T10:02:19.194Z,30.04
2019-04-30T10:04:53.572Z,30.25
2019-04-30T10:07:29.365Z,30.44
2019-04-30T10:10:03.759Z,30.92
2019-04-30T10:12:39.222Z,30.54
2019-04-30T10:15:15.483Z,29.76
2019-04-30T10:17:50.951Z,29.33
2019-04-30T10:20:30.826Z,29.27
2019-04-30T10:23:04.701Z,30.09
2019-04-30T10:25:38.914Z,29.78
2019-04-30T10:28:12.929Z,29.22
2019-04-30T10:30:46.757Z,28.73
2019-04-30T10:33:20.963Z,28.65
2019-04-30T10:35:55.140Z,28.82
2019-04-30T10:38:29.440Z,29.46
2019-04-30T10:41:03.495Z,30.06
2019-04-30T10:43:39.390Z,29.03
2019-04-30T10:46:13.513Z,28.70
2019-04-30T10:48:47.528Z,29.21
2019-04-30T10:51:21.356Z,28.98
2019-04-30T10:53:55.193Z,28.04
2019-04-30T10:56:30.023Z,28.37
2019-04-30T10:59:04.241Z,27.87
2019-04-30T11:01:39.146Z,26.84
2019-04-30T11:04:16.518Z,25.85
2019-04-30T11:06:50.439Z,25.85
2019-04-30T11:09:25.881Z,24.89
2019-04-30T11:12:03.077Z,24.49
2019-04-30T11:14:36.783Z,23.97
2019-04-30T11:17:11.141Z,23.43
2019-04-30T11:19:45.275Z,22.70
2019-04-30T11:22:19.683Z,22.28
2019-04-30T11:25:00.137Z,22.24
2019-04-30T11:27:31.076Z,22.07
2019-04-30T11:30:26.284Z,21.82
2019-04-30T11:33:01.548Z,21.49
2019-04-30T11:35:35.718Z,21.08
2019-04-30T11:38:09.709Z,20.69
2019-04-30T11:40:43.014Z,20.42
2019-04-30T11:46:00.309Z,20.16
2019-04-30T11:48:34.451Z,20.15
2019-04-30T11:51:09.349Z,19.94
2019-04-30T11:53:42.522Z,19.82
2019-04-30T11:56:16.476Z,19.80
2019-04-30T11:58:50.395Z,19.65
2019-04-30T12:01:25.858Z,19.21
2019-04-30T12:03:59.951Z,19.22
2019-04-30T12:06:33.580Z,19.25
2019-04-30T12:09:28.533Z,19.04
2019-04-30T12:12:03.067Z,18.64
2019-04-30T12:14:37.027Z,18.73
2019-04-30T12:17:11.041Z,18.89
2019-04-30T12:19:44.274Z,18.67
2019-04-30T12:22:20.121Z,18.43
2019-04-30T12:25:02.513Z,18.37
2019-04-30T12:27:30.083Z,18.40
2019-04-30T12:30:04.126Z,18.44
2019-04-30T12:32:39.309Z,18.55
2019-04-30T12:35:14.441Z,18.47
2019-04-30T12:37:50.853Z,18.31
2019-04-30T12:40:28.891Z,18.28
2019-04-30T12:43:00.347Z,18.36
2019-04-30T12:45:33.513Z,18.15
2019-04-30T12:48:13.107Z,17.96
2019-04-30T12:50:49.224Z,17.94
2019-04-30T12:53:37.613Z,17.90
2019-04-30T12:56:13.655Z,17.83
2019-04-30T12:58:48.026Z,17.95
2019-04-30T13:01:22.129Z,17.94
2019-04-30T13:03:58.385Z,18.01
2019-04-30T13:06:30.483Z,17.91
2019-04-30T13:09:08.124Z,17.85
2019-04-30T13:11:43.259Z,17.66
2019-04-30T13:14:20.001Z,17.60
2019-04-30T13:16:53.475Z,17.50
2019-04-30T13:19:28.416Z,17.32
2019-04-30T13:22:02.526Z,17.15
2019-04-30T13:24:35.830Z,17.13
2019-04-30T13:27:10.247Z,17.03
2019-04-30T13:29:51.781Z,16.99
2019-04-30T13:32:30.062Z,17.07
2019-04-30T13:35:02.368Z,17.06
2019-04-30T13:37:38.963Z,17.09
2019-04-30T13:40:24.665Z,17.10
2019-04-30T13:43:00.433Z,17.03
2019-04-30T13:45:34.434Z,17.01
2019-04-30T13:48:09.012Z,16.93
2019-04-30T13:50:43.102Z,16.93
2019-04-30T13:53:18.614Z,16.97
2019-04-30T13:55:52.594Z,16.95
2019-04-30T13:58:26.654Z,16.96
2019-04-30T14:00:59.796Z,16.92
2019-04-30T14:03:41.457Z,16.81
2019-04-30T14:06:18.951Z,16.73
2019-04-30T14:08:54.285Z,16.65
2019-04-30T14:11:28.201Z,16.60
2019-04-30T14:14:02.505Z,16.58
2019-04-30T14:16:36.409Z,16.44
2019-04-30T14:19:10.575Z,16.41
2019-04-30T14:21:43.738Z,16.42
2019-04-30T14:24:19.296Z,16.51
2019-04-30T14:26:53.505Z,16.52
2019-04-30T14:29:28.455Z,16.48
2019-04-30T14:32:02.439Z,16.47
2019-04-30T14:34:36.572Z,16.43
2019-04-30T14:37:09.851Z,16.49
2019-04-30T14:40:04.888Z,16.41
2019-04-30T14:42:41.247Z,16.31
2019-04-30T14:45:17.929Z,16.25
2019-04-30T14:48:03.832Z,16.25
2019-04-30T14:50:38.619Z,16.21
2019-04-30T14:53:17.025Z,16.15
2019-04-30T14:55:52.687Z,16.14
2019-04-30T14:58:44.607Z,16.18
2019-04-30T15:01:35.313Z,16.14
2019-04-30T15:04:09.593Z,16.14
2019-04-30T15:06:43.878Z,16.14
2019-04-30T15:09:18.051Z,16.15
2019-04-30T15:11:51.194Z,16.08
2019-04-30T15:14:25.130Z,16.02
2019-04-30T15:16:59.249Z,15.96
2019-04-30T15:19:32.713Z,15.91
2019-04-30T15:22:08.667Z,15.90
2019-04-30T15:24:42.839Z,15.89
2019-04-30T15:27:19.012Z,15.88
2019-04-30T15:29:57.094Z,15.86
2019-04-30T15:32:28.756Z,15.81
2019-04-30T15:35:02.909Z,15.79
2019-04-30T15:37:38.563Z,15.72
2019-04-30T15:40:13.015Z,15.59
2019-04-30T15:42:48.811Z,15.57
2019-04-30T15:45:23.007Z,15.51
2019-04-30T15:47:58.496Z,15.48
2019-04-30T15:50:32.995Z,15.43
2019-04-30T15:53:09.355Z,15.43
2019-04-30T15:55:43.285Z,15.45
2019-04-30T15:58:18.347Z,15.42
2019-04-30T16:00:52.707Z,15.38
2019-04-30T16:03:28.329Z,15.28
2019-04-30T16:06:03.544Z,15.25
2019-04-30T16:08:39.173Z,15.22
2019-04-30T16:11:14.805Z,15.22
2019-04-30T16:13:50.405Z,15.24
2019-04-30T16:16:26.211Z,15.22
2019-04-30T16:19:00.027Z,15.14
2019-04-30T16:21:34.219Z,15.07
2019-04-30T16:24:08.713Z,15.09
2019-04-30T16:26:49.995Z,15.07
2019-04-30T16:29:18.228Z,15.04
2019-04-30T16:31:52.271Z,15.04
2019-04-30T16:34:25.574Z,14.97
2019-04-30T16:36:59.536Z,14.92
2019-04-30T16:39:33.553Z,14.84
2019-04-30T16:42:09.106Z,14.74
2019-04-30T16:44:43.382Z,14.71
2019-04-30T16:47:19.712Z,14.66
2019-04-30T16:49:53.710Z,14.66
2019-04-30T16:52:29.428Z,14.66
2019-04-30T16:55:03.425Z,14.53
2019-04-30T16:57:36.602Z,14.45
2019-04-30T17:00:14.101Z,14.36
2019-04-30T17:02:49.807Z,14.27
2019-04-30T17:05:25.565Z,14.24
2019-04-30T17:08:04.106Z,14.19
2019-04-30T17:10:39.833Z,14.16
2019-04-30T17:13:15.717Z,14.08
2019-04-30T17:15:51.304Z,14.02
2019-04-30T17:18:25.408Z,13.93
2019-04-30T17:20:58.866Z,13.93
2019-04-30T17:23:33.020Z,13.88
2019-04-30T17:26:06.290Z,13.85
2019-04-30T17:28:40.295Z,13.82
2019-04-30T17:31:14.291Z,13.82
2019-04-30T17:33:48.617Z,13.77
2019-04-30T17:36:22.900Z,13.74
2019-04-30T17:38:56.920Z,13.75
2019-04-30T17:41:31.105Z,13.70
2019-04-30T17:44:04.802Z,13.68
2019-04-30T17:46:38.808Z,13.54
2019-04-30T17:49:13.041Z,13.44
2019-04-30T17:51:48.979Z,13.46
2019-04-30T17:54:25.028Z,13.45
2019-04-30T17:56:59.092Z,13.43
2019-04-30T17:59:32.658Z,13.28
2019-04-30T18:02:09.641Z,13.21
2019-04-30T18:04:43.926Z,13.14
2019-04-30T18:07:19.837Z,13.03
2019-04-30T18:09:54.435Z,12.97
2019-04-30T18:12:29.224Z,12.86
2019-04-30T18:15:04.255Z,12.76
2019-04-30T18:17:38.654Z,12.73
2019-04-30T18:20:14.465Z,12.70
2019-04-30T18:23:08.305Z,12.68
2019-04-30T18:25:43.892Z,12.63
2019-04-30T18:28:19.110Z,12.60
2019-04-30T18:30:53.388Z,12.52
2019-04-30T18:33:27.519Z,12.45
2019-04-30T18:36:01.567Z,12.37
2019-04-30T18:38:35.633Z,12.31
2019-04-30T18:41:09.473Z,12.26
2019-04-30T18:43:43.711Z,12.22
2019-04-30T18:46:19.048Z,12.18
2019-04-30T18:48:52.851Z,12.14
2019-04-30T18:51:38.356Z,12.07
2019-04-30T18:54:02.728Z,11.99
2019-04-30T18:56:38.876Z,11.96
2019-04-30T18:59:12.792Z,11.94
2019-04-30T19:01:46.531Z,11.93
2019-04-30T19:04:20.638Z,11.87
2019-04-30T19:06:55.573Z,11.80
2019-04-30T19:09:40.517Z,11.75
2019-04-30T19:12:16.187Z,11.66
2019-04-30T19:14:51.901Z,11.61
2019-04-30T19:17:29.393Z,11.59
2019-04-30T19:20:04.809Z,11.50
2019-04-30T19:22:39.682Z,11.41
2019-04-30T19:25:14.002Z,11.33
2019-04-30T19:27:48.344Z,11.26
2019-04-30T19:30:22.941Z,11.16
2019-04-30T19:32:58.938Z,11.08
2019-04-30T19:35:33.177Z,10.98
2019-04-30T19:38:06.630Z,10.88
2019-04-30T19:40:41.149Z,10.77
2019-04-30T19:43:15.337Z,10.65
2019-04-30T19:45:51.209Z,10.56
2019-04-30T19:48:25.825Z,10.48
2019-04-30T19:51:00.233Z,10.40
2019-04-30T19:53:34.583Z,10.36
2019-04-30T19:56:08.747Z,10.33
2019-04-30T19:58:54.434Z,10.28
2019-04-30T20:01:18.412Z,10.23
2019-04-30T20:03:52.581Z,10.15
2019-04-30T20:06:25.911Z,10.09
2019-04-30T20:09:00.784Z,9.99
2019-04-30T20:11:35.253Z,9.89
2019-04-30T20:14:10.489Z,9.85
2019-04-30T20:16:44.917Z,9.77
2019-04-30T20:19:19.203Z,9.68
2019-04-30T20:21:54.081Z,9.60
2019-04-30T20:24:29.564Z,9.53
2019-04-30T20:27:07.312Z,9.43
2019-04-30T20:29:40.903Z,9.36
2019-04-30T20:32:15.115Z,9.31
2019-04-30T20:34:48.909Z,9.25
2019-04-30T20:37:23.223Z,9.19
2019-04-30T20:40:01.889Z,9.01
2019-04-30T20:42:36.019Z,9.04
2019-04-30T20:45:10.303Z,8.96
2019-04-30T20:47:44.408Z,8.86
2019-04-30T20:50:17.687Z,8.82
2019-04-30T20:52:52.075Z,8.72
2019-04-30T20:55:26.061Z,8.64
2019-04-30T20:58:00.129Z,8.58
2019-04-30T21:00:33.486Z,8.53
2019-04-30T21:03:09.562Z,8.51
2019-04-30T21:05:43.353Z,8.49
2019-04-30T21:08:16.643Z,8.44
2019-04-30T21:10:50.631Z,8.36
2019-04-30T21:13:23.947Z,8.23
2019-04-30T21:15:59.516Z,8.14
2019-04-30T21:18:34.077Z,8.03
2019-04-30T21:21:08.293Z,7.95
2019-04-30T21:23:42.667Z,7.90
2019-04-30T21:26:16.831Z,7.85
2019-04-30T21:28:50.933Z,7.83
2019-04-30T21:31:38.926Z,7.77
2019-04-30T21:34:23.392Z,7.70
2019-04-30T21:36:59.537Z,7.64
2019-04-30T21:39:33.134Z,7.58
2019-04-30T21:42:09.291Z,7.48
2019-04-30T21:44:43.433Z,7.43
2019-04-30T21:47:17.500Z,7.36
2019-04-30T21:49:50.857Z,7.26
2019-04-30T21:52:24.935Z,7.20
2019-04-30T21:54:59.626Z,7.14
2019-04-30T21:57:34.062Z,7.13
2019-04-30T22:00:15.563Z,7.09
2019-04-30T22:02:50.008Z,7.08
2019-04-30T22:05:23.882Z,7.10
2019-04-30T22:07:59.190Z,7.11
2019-04-30T22:10:33.367Z,7.13
2019-04-30T22:13:08.747Z,7.07
2019-04-30T22:15:42.338Z,7.10
2019-04-30T22:18:15.633Z,7.15
2019-04-30T22:20:49.876Z,7.17
2019-04-30T22:23:24.109Z,7.17
2019-04-30T22:25:58.139Z,7.19
2019-04-30T22:28:31.468Z,7.14
2019-04-30T22:31:05.489Z,7.09
2019-04-30T22:33:39.300Z,6.96
2019-04-30T22:36:28.940Z,6.93
2019-04-30T22:39:13.537Z,6.87
2019-04-30T22:41:47.576Z,6.74
2019-04-30T22:44:20.924Z,6.52
2019-04-30T22:46:55.041Z,6.49
2019-04-30T22:49:29.226Z,6.53
2019-04-30T22:52:03.672Z,6.53
2019-04-30T22:54:37.873Z,6.57
2019-04-30T22:57:11.893Z,6.58
2019-04-30T22:59:50.024Z,6.47
2019-04-30T23:02:22.210Z,6.38
2019-04-30T23:04:56.147Z,6.32
2019-04-30T23:07:29.297Z,6.32
2019-04-30T23:10:03.267Z,6.21
2019-04-30T23:12:36.529Z,6.09
2019-04-30T23:15:10.746Z,6.03
2019-04-30T23:17:44.717Z,5.99
2019-04-30T23:20:17.905Z,5.92
2019-04-30T23:22:51.996Z,5.83
2019-04-30T23:25:26.326Z,5.85
2019-04-30T23:28:00.655Z,5.89
2019-04-30T23:30:34.571Z,5.81
2019-04-30T23:33:08.485Z,5.75
2019-04-30T23:35:41.792Z,5.60
2019-04-30T23:38:15.813Z,5.63
2019-04-30T23:40:50.303Z,5.62
2019-04-30T23:43:24.347Z,5.63
2019-04-30T23:45:57.621Z,5.56
2019-04-30T23:48:31.568Z,5.50
2019-04-30T23:51:05.073Z,5.40
2019-04-30T23:53:39.049Z,5.33
2019-04-30T23:56:12.259Z,5.29
2019-04-30T23:58:46.260Z,5.30
